Millsboro, Delaware
Current Conditions -  °F | °C
As of 10:54 AM on Friday 28 Nov 2014 (Local Time) from KGED Reporting Station
Few Clouds Few Clouds  
Wind Chill: 33°   Ceiling: Unl
Heat Index: 40°   Visibility: 10mi
Dew Point: 20°   Wind: 10mph
Humidity: 45%   Direction: 350°N
Pressure: 30.26"   Gusts: 22mph
Location:  38.59°N, 75.29°W
Report Text: KGED 281554Z AUTO 35009G19KT 10SM FEW042 04/M07 A3026 RMK AO2 SLP246 T00441067
Loading
Personal Weather Stations






























Interactive Weather Map New forecast layout! Learn more

10-Day Weather Forecast

Advertisements
Track Severe Weather on mobile